createdAt,value
2022-08-22T00:00:24.468Z,99994.56
2022-08-22T00:02:49.121Z,100003.88
2022-08-22T00:02:56.362Z,100004.38
2022-08-22T00:03:09.861Z,100018.84
2022-08-22T00:03:11.733Z,99988.25
2022-08-22T00:03:12.379Z,100021.06
2022-08-22T00:03:15.512Z,100004.22
2022-08-22T00:03:27.456Z,99999.00
2022-08-22T00:06:11.444Z,99998.41
2022-08-22T00:08:51.408Z,100005.69
2022-08-22T00:11:29.356Z,100009.97
2022-08-22T00:14:07.287Z,99998.59
2022-08-22T00:16:48.235Z,99996.34
2022-08-22T00:19:28.377Z,100002.53
2022-08-22T00:22:06.228Z,100002.72
2022-08-22T00:24:46.400Z,99997.81
2022-08-22T00:27:22.370Z,100001.69
2022-08-22T00:29:56.137Z,100004.56
2022-08-22T00:32:33.164Z,100006.41
2022-08-22T00:35:14.883Z,99994.91
2022-08-22T00:37:54.200Z,99996.38
2022-08-22T00:40:50.068Z,99996.53
2022-08-22T00:44:00.888Z,99992.91
2022-08-22T00:47:09.320Z,99993.50
2022-08-22T00:50:06.436Z,99994.13
2022-08-22T00:53:04.559Z,99997.03
2022-08-22T00:55:59.690Z,99988.06
2022-08-22T00:58:53.501Z,99991.31
2022-08-22T01:01:33.579Z,99986.03
2022-08-22T01:04:44.480Z,99982.16
2022-08-22T01:07:38.300Z,99983.34
2022-08-22T01:10:30.868Z,99980.16
2022-08-22T01:13:19.873Z,99977.56
2022-08-22T01:15:51.849Z,99979.50
2022-08-22T01:18:48.693Z,99981.53
2022-08-22T01:21:55.804Z,99972.91
2022-08-22T01:25:26.145Z,99974.81
2022-08-22T01:28:40.739Z,99974.59
2022-08-22T01:31:53.263Z,99973.41
2022-08-22T01:35:08.095Z,99969.53
2022-08-22T01:38:06.259Z,99979.78
2022-08-22T01:41:20.204Z,99979.88
2022-08-22T01:44:34.165Z,99978.44
2022-08-22T01:47:12.389Z,99971.59
2022-08-22T01:49:50.072Z,99972.09
2022-08-22T01:52:33.353Z,99963.13
2022-08-22T01:55:09.207Z,99970.28
2022-08-22T01:57:53.047Z,99975.63
2022-08-22T02:00:34.766Z,99975.19
2022-08-22T02:03:26.566Z,99966.88
2022-08-22T02:06:03.953Z,99972.59
2022-08-22T02:08:44.928Z,99973.03
2022-08-22T02:11:48.019Z,99969.91
2022-08-22T02:14:24.332Z,99961.97
2022-08-22T02:16:59.321Z,99958.75
2022-08-22T02:19:39.812Z,99963.28
2022-08-22T02:22:32.232Z,99961.06
2022-08-22T02:25:09.777Z,99968.63
2022-08-22T02:27:51.253Z,99959.56
2022-08-22T02:30:24.542Z,99956.75
2022-08-22T02:33:09.516Z,99951.81
2022-08-22T02:35:47.957Z,99951.88
2022-08-22T02:38:30.164Z,99956.13
2022-08-22T02:41:17.542Z,99953.31
2022-08-22T02:43:52.064Z,99948.41
2022-08-22T02:46:30.678Z,99949.53
2022-08-22T02:49:09.472Z,99946.53
2022-08-22T02:51:50.337Z,99946.56
2022-08-22T02:54:27.726Z,99947.34
2022-08-22T02:57:04.102Z,99944.06
2022-08-22T02:59:56.880Z,99943.63
2022-08-22T03:02:36.564Z,99950.63
2022-08-22T03:05:24.522Z,99940.81
2022-08-22T03:08:24.005Z,99937.06
2022-08-22T03:11:12.895Z,99937.59
2022-08-22T03:13:58.853Z,99934.84
2022-08-22T03:16:36.945Z,99934.78
2022-08-22T03:19:18.887Z,99931.06
2022-08-22T03:21:57.401Z,99928.19
2022-08-22T03:24:33.056Z,99929.19
2022-08-22T03:27:08.899Z,99934.34
2022-08-22T03:29:41.801Z,99927.16
2022-08-22T03:32:19.081Z,99935.22
2022-08-22T03:35:03.684Z,99934.69
2022-08-22T03:37:41.954Z,99934.78
2022-08-22T03:40:31.752Z,99938.09
2022-08-22T03:43:34.715Z,99936.00
2022-08-22T03:46:53.168Z,99927.78
2022-08-22T03:50:07.883Z,99923.84
2022-08-22T03:53:19.094Z,99917.81
2022-08-22T03:56:44.888Z,99913.88
2022-08-22T03:59:52.544Z,99913.28
2022-08-22T04:02:52.273Z,99907.47
2022-08-22T04:06:00.427Z,99905.47
2022-08-22T04:09:21.011Z,99906.78
2022-08-22T04:12:18.701Z,99910.03
2022-08-22T04:15:35.859Z,99919.44
2022-08-22T04:18:33.432Z,99919.78
2022-08-22T04:21:43.721Z,99918.06
2022-08-22T04:24:37.248Z,99922.41
2022-08-22T04:27:17.565Z,99924.53
2022-08-22T04:29:53.280Z,99920.56
2022-08-22T04:32:32.125Z,99920.66
2022-08-22T04:35:09.019Z,99913.44
2022-08-22T04:37:48.115Z,99919.34
2022-08-22T04:40:25.430Z,99922.78
2022-08-22T04:43:03.629Z,99926.81
2022-08-22T04:45:37.112Z,99924.19
2022-08-22T04:48:13.661Z,99929.03
2022-08-22T04:50:58.995Z,99927.81
2022-08-22T04:53:55.677Z,99926.81
2022-08-22T04:56:38.552Z,99938.97
2022-08-22T04:59:16.437Z,99940.81
2022-08-22T05:01:47.983Z,99937.13
2022-08-22T05:04:22.691Z,99945.31
2022-08-22T05:06:56.029Z,99938.03
2022-08-22T05:09:29.796Z,99939.09
2022-08-22T05:12:09.064Z,99938.81
2022-08-22T05:14:43.202Z,99944.97
2022-08-22T05:17:17.182Z,99935.31
2022-08-22T05:19:52.513Z,99944.81
2022-08-22T05:22:41.240Z,99942.06
2022-08-22T05:25:15.119Z,99938.69
2022-08-22T05:27:56.633Z,99944.38
2022-08-22T05:30:30.294Z,99947.53
2022-08-22T05:33:10.608Z,99947.44
2022-08-22T05:35:48.587Z,99951.56
2022-08-22T05:38:24.935Z,99962.22
2022-08-22T05:41:00.795Z,99952.63
2022-08-22T05:43:30.749Z,99961.09
2022-08-22T05:46:00.102Z,99963.09
2022-08-22T05:48:39.800Z,99955.94
2022-08-22T05:51:18.798Z,99960.09
2022-08-22T05:53:53.502Z,99962.03
2022-08-22T05:56:34.296Z,99966.72
2022-08-22T05:59:14.682Z,99960.53
2022-08-22T06:01:55.270Z,99966.06
2022-08-22T06:04:32.677Z,99974.53
2022-08-22T06:07:07.897Z,99967.09
2022-08-22T06:10:02.537Z,99971.66
2022-08-22T06:12:37.777Z,99962.44
2022-08-22T06:15:16.171Z,99966.78
2022-08-22T06:17:52.814Z,99966.19
2022-08-22T06:20:26.481Z,99959.16
2022-08-22T06:23:02.861Z,99960.00
2022-08-22T06:25:34.599Z,99964.69
2022-08-22T06:28:09.719Z,99962.69
2022-08-22T06:30:41.126Z,99965.81
2022-08-22T06:33:17.369Z,99964.69
2022-08-22T06:36:08.002Z,99968.72
2022-08-22T06:39:00.256Z,99968.25
2022-08-22T06:41:33.149Z,99973.94
2022-08-22T06:44:03.443Z,99974.63
2022-08-22T06:46:38.686Z,99971.06
2022-08-22T06:49:09.624Z,99969.44
2022-08-22T06:51:40.119Z,99973.44
2022-08-22T06:54:17.103Z,99961.63
2022-08-22T06:56:50.057Z,99956.44
2022-08-22T06:59:24.271Z,99951.59
2022-08-22T07:02:00.233Z,99956.03
2022-08-22T07:04:29.029Z,99951.59
2022-08-22T07:07:01.454Z,99950.97
2022-08-22T07:09:32.650Z,99956.03
2022-08-22T07:12:12.725Z,99960.44
2022-08-22T07:14:44.754Z,99957.53
2022-08-22T07:17:21.789Z,99950.88
2022-08-22T07:20:00.271Z,99956.47
2022-08-22T07:22:32.916Z,99957.59
2022-08-22T07:25:08.863Z,99959.22
2022-08-22T07:28:03.859Z,99953.16
2022-08-22T07:30:49.403Z,99959.59
2022-08-22T07:33:42.159Z,99963.34
2022-08-22T07:36:31.838Z,99967.59
2022-08-22T07:39:20.290Z,99964.69
2022-08-22T07:42:11.539Z,99970.63
2022-08-22T07:45:00.429Z,99964.16
2022-08-22T07:47:50.192Z,99967.63
2022-08-22T07:50:28.077Z,99970.78
2022-08-22T07:53:05.159Z,99974.47
2022-08-22T07:55:34.313Z,99970.53
2022-08-22T07:58:15.300Z,99973.66
2022-08-22T08:00:47.455Z,99973.13
2022-08-22T08:03:16.248Z,99976.84
2022-08-22T08:05:46.769Z,99975.34
2022-08-22T08:08:27.703Z,99972.56
2022-08-22T08:10:59.172Z,99975.31
2022-08-22T08:13:32.765Z,99975.94
2022-08-22T08:16:02.441Z,99974.91
2022-08-22T08:18:35.242Z,99966.63
2022-08-22T08:21:10.621Z,99966.38
2022-08-22T08:23:47.303Z,99961.41
2022-08-22T08:26:22.316Z,99960.75
2022-08-22T08:28:52.836Z,99956.78
2022-08-22T08:31:28.427Z,99959.78
2022-08-22T08:34:05.308Z,99959.56
2022-08-22T08:36:42.962Z,99954.53
2022-08-22T08:39:24.168Z,99963.38
2022-08-22T08:42:55.689Z,99952.28
2022-08-22T08:45:42.592Z,99949.16
2022-08-22T08:49:09.499Z,99939.63
2022-08-22T08:52:27.244Z,99948.25
2022-08-22T08:55:15.926Z,99938.75
2022-08-22T08:58:10.232Z,99936.31
2022-08-22T09:01:03.233Z,99940.13
2022-08-22T09:04:27.211Z,99944.41
2022-08-22T09:07:25.342Z,99948.56
2022-08-22T09:10:18.831Z,99938.47
2022-08-22T09:13:12.186Z,99944.13
2022-08-22T09:16:08.409Z,99938.31
2022-08-22T09:19:23.210Z,99938.84
2022-08-22T09:22:50.641Z,99935.53
2022-08-22T09:25:38.402Z,99944.53
2022-08-22T09:28:17.522Z,99941.66
2022-08-22T09:31:22.336Z,99943.50
2022-08-22T09:34:07.181Z,99927.41
2022-08-22T09:36:55.372Z,99935.28
2022-08-22T09:39:35.560Z,99928.47
2022-08-22T09:42:25.209Z,99922.97
2022-08-22T09:45:34.500Z,99920.78
2022-08-22T09:48:14.468Z,99924.22
2022-08-22T09:50:53.345Z,99917.00
2022-08-22T09:53:50.769Z,99921.34
2022-08-22T09:56:29.664Z,99921.78
2022-08-22T09:59:09.874Z,99920.69
2022-08-22T10:01:50.870Z,99929.81
2022-08-22T10:04:47.907Z,99921.41
2022-08-22T10:07:53.170Z,99913.63
2022-08-22T10:10:40.895Z,99911.69
2022-08-22T10:13:23.717Z,99912.97
2022-08-22T10:16:02.702Z,99910.03
2022-08-22T10:18:53.927Z,99907.41
2022-08-22T10:21:36.262Z,99905.88
2022-08-22T10:24:25.586Z,99908.28
2022-08-22T10:26:58.113Z,99903.25
2022-08-22T10:29:56.900Z,99899.50
2022-08-22T10:32:37.127Z,99894.97
2022-08-22T10:35:22.062Z,99883.97
2022-08-22T10:37:59.247Z,99886.31
2022-08-22T10:40:33.365Z,99892.44
2022-08-22T10:43:12.893Z,99890.06
2022-08-22T10:45:46.177Z,99886.19
2022-08-22T10:48:35.111Z,99879.38
2022-08-22T10:51:23.378Z,99876.13
2022-08-22T10:54:40.719Z,99866.88
2022-08-22T10:57:30.120Z,99880.06
2022-08-22T11:00:11.511Z,99872.19
2022-08-22T11:02:53.540Z,99879.22
2022-08-22T11:05:33.866Z,99873.16
2022-08-22T11:08:25.506Z,99864.19
2022-08-22T11:11:19.326Z,99868.84
2022-08-22T11:14:27.205Z,99869.91
2022-08-22T11:17:32.510Z,99866.91
2022-08-22T11:20:21.341Z,99865.13
2022-08-22T11:23:16.492Z,99860.66
2022-08-22T11:25:58.423Z,99864.84
2022-08-22T11:29:02.867Z,99857.50
2022-08-22T11:32:00.448Z,99854.91
2022-08-22T11:34:56.856Z,99849.28
2022-08-22T11:37:48.678Z,99851.47
2022-08-22T11:40:33.725Z,99854.28
2022-08-22T11:43:26.081Z,99847.34
2022-08-22T11:46:01.996Z,99845.78
2022-08-22T11:48:47.417Z,99841.50
2022-08-22T11:51:36.111Z,99837.56
2022-08-22T11:54:15.336Z,99847.19
2022-08-22T11:56:53.753Z,99834.81
2022-08-22T11:59:31.073Z,99837.22
2022-08-22T12:02:05.035Z,99834.47
2022-08-22T12:04:44.215Z,99829.03
2022-08-22T12:07:16.880Z,99830.34
2022-08-22T12:09:55.045Z,99829.41
2022-08-22T12:12:55.266Z,99832.69
2022-08-22T12:15:33.462Z,99824.53
2022-08-22T12:18:43.826Z,99828.78
2022-08-22T12:22:00.324Z,99824.28
2022-08-22T12:24:46.190Z,99822.66
2022-08-22T12:27:50.922Z,99815.09
2022-08-22T12:30:35.136Z,99817.50
2022-08-22T12:33:39.943Z,99817.34
2022-08-22T12:36:27.323Z,99815.22
2022-08-22T12:39:44.300Z,99806.56
2022-08-22T12:42:38.819Z,99811.59
2022-08-22T12:45:28.564Z,99808.44
2022-08-22T12:48:15.729Z,99806.63
2022-08-22T12:50:53.571Z,99789.97
2022-08-22T12:54:08.685Z,99789.88
2022-08-22T12:56:47.700Z,99783.34
2022-08-22T12:59:25.930Z,99780.44
2022-08-22T13:01:58.371Z,99785.25
2022-08-22T13:04:35.540Z,99782.91
2022-08-22T13:07:11.459Z,99777.75
2022-08-22T13:09:43.238Z,99782.44
2022-08-22T13:12:21.253Z,99775.06
2022-08-22T13:14:56.201Z,99777.19
2022-08-22T13:17:27.908Z,99773.72
2022-08-22T13:20:04.342Z,99771.59
2022-08-22T13:22:36.888Z,99769.66
2022-08-22T13:25:16.478Z,99766.44
2022-08-22T13:27:59.349Z,99765.59
2022-08-22T13:30:34.603Z,99768.56
2022-08-22T13:33:11.831Z,99762.66
2022-08-22T13:35:52.268Z,99763.66
2022-08-22T13:38:26.611Z,99748.78
2022-08-22T13:40:58.169Z,99757.31
2022-08-22T13:43:32.473Z,99758.34
2022-08-22T13:46:05.765Z,99742.34
2022-08-22T13:48:51.837Z,99747.69
2022-08-22T13:51:32.213Z,99745.47
2022-08-22T13:54:21.612Z,99756.06
2022-08-22T13:57:01.842Z,99753.94
2022-08-22T13:59:51.683Z,99751.63
2022-08-22T14:02:43.533Z,99749.19
2022-08-22T14:05:22.091Z,99740.47
2022-08-22T14:08:12.912Z,99742.34
2022-08-22T14:10:52.205Z,99753.25
2022-08-22T14:13:50.518Z,99744.91
2022-08-22T14:16:27.105Z,99745.78
2022-08-22T14:19:05.974Z,99742.97
2022-08-22T14:21:43.696Z,99742.81
2022-08-22T14:24:25.540Z,99728.91
2022-08-22T14:27:05.072Z,99733.41
2022-08-22T14:29:50.414Z,99727.53
2022-08-22T14:32:41.825Z,99733.03
2022-08-22T14:35:23.178Z,99723.41
2022-08-22T14:38:21.553Z,99723.50
2022-08-22T14:41:05.406Z,99719.78
2022-08-22T14:43:49.868Z,99721.38
2022-08-22T14:46:26.714Z,99711.16
2022-08-22T14:49:38.254Z,99709.28
2022-08-22T14:52:19.554Z,99715.38
2022-08-22T14:54:51.042Z,99716.75
2022-08-22T14:57:20.862Z,99705.66
2022-08-22T14:59:53.510Z,99707.38
2022-08-22T15:02:29.611Z,99703.47
2022-08-22T15:05:02.258Z,99703.63
2022-08-22T15:07:36.527Z,99705.75
2022-08-22T15:10:12.045Z,99705.50
2022-08-22T15:12:48.380Z,99701.75
2022-08-22T15:15:33.311Z,99700.94
2022-08-22T15:18:33.977Z,99692.38
2022-08-22T15:21:08.660Z,99692.34
2022-08-22T15:23:45.164Z,99702.78
2022-08-22T15:26:26.875Z,99691.78
2022-08-22T15:29:09.626Z,99700.25
2022-08-22T15:31:43.420Z,99694.84
2022-08-22T15:34:24.458Z,99697.47
2022-08-22T15:37:08.478Z,99698.63
2022-08-22T15:40:12.111Z,99689.50
2022-08-22T15:42:46.233Z,99695.16
2022-08-22T15:45:34.825Z,99697.56
2022-08-22T15:48:13.445Z,99697.28
2022-08-22T15:50:58.483Z,99691.09
2022-08-22T15:53:33.710Z,99696.41
2022-08-22T15:56:31.868Z,99693.78
2022-08-22T15:59:30.432Z,99693.44
2022-08-22T16:02:29.098Z,99693.53
2022-08-22T16:05:24.383Z,99692.97
2022-08-22T16:08:05.106Z,99695.66
2022-08-22T16:10:39.420Z,99694.13
2022-08-22T16:13:33.791Z,99689.66
2022-08-22T16:16:09.258Z,99690.16
2022-08-22T16:19:19.057Z,99692.06
2022-08-22T16:22:14.925Z,99698.56
2022-08-22T16:25:17.413Z,99691.81
2022-08-22T16:27:59.816Z,99691.78
2022-08-22T16:30:40.667Z,99685.91
2022-08-22T16:33:18.522Z,99675.16
2022-08-22T16:36:45.562Z,99685.09
2022-08-22T16:39:38.172Z,99681.06
2022-08-22T16:42:28.801Z,99674.09
2022-08-22T16:45:16.802Z,99673.72
2022-08-22T16:47:52.675Z,99684.25
2022-08-22T16:50:35.219Z,99683.69
2022-08-22T16:53:33.509Z,99679.56
2022-08-22T16:56:31.023Z,99669.16
2022-08-22T16:59:38.583Z,99669.31
2022-08-22T17:02:54.696Z,99662.88
2022-08-22T17:05:48.559Z,99667.16
2022-08-22T17:08:38.410Z,99671.31
2022-08-22T17:11:24.411Z,99664.94
2022-08-22T17:14:18.672Z,99667.78
2022-08-22T17:17:02.738Z,99660.72
2022-08-22T17:19:51.115Z,99666.66
2022-08-22T17:22:32.684Z,99667.72
2022-08-22T17:25:23.156Z,99669.97
2022-08-22T17:28:04.363Z,99666.56
2022-08-22T17:30:48.209Z,99664.09
2022-08-22T17:33:35.271Z,99671.19
2022-08-22T17:36:26.725Z,99670.97
2022-08-22T17:39:13.660Z,99665.00
2022-08-22T17:41:52.701Z,99671.41
2022-08-22T17:44:30.746Z,99674.91
2022-08-22T17:47:09.981Z,99674.19
2022-08-22T17:49:55.149Z,99670.41
2022-08-22T17:52:35.897Z,99677.91
2022-08-22T17:55:14.484Z,99681.66
2022-08-22T17:57:53.373Z,99684.19
2022-08-22T18:00:30.755Z,99687.09
2022-08-22T18:03:09.094Z,99686.28
2022-08-22T18:05:48.359Z,99692.03
2022-08-22T18:11:24.162Z,99684.69
2022-08-22T18:13:59.167Z,99686.56
2022-08-22T18:16:44.617Z,99689.25
2022-08-22T18:19:39.798Z,99689.78
2022-08-22T18:22:19.128Z,99683.28
2022-08-22T18:24:55.076Z,99688.31
2022-08-22T18:27:34.560Z,99693.69
2022-08-22T18:30:19.789Z,99698.16
2022-08-22T18:32:59.525Z,99696.19
2022-08-22T18:35:40.907Z,99697.59
2022-08-22T18:38:21.530Z,99704.44
2022-08-22T18:40:55.896Z,99711.28
2022-08-22T18:43:38.780Z,99712.34
2022-08-22T18:46:39.761Z,99719.59
2022-08-22T18:49:33.848Z,99714.25
2022-08-22T18:52:36.315Z,99716.91
2022-08-22T18:55:32.552Z,99715.16
2022-08-22T18:58:34.193Z,99710.81
2022-08-22T19:01:31.062Z,99723.50
2022-08-22T19:04:32.999Z,99730.81
2022-08-22T19:07:55.488Z,99733.63
2022-08-22T19:10:54.443Z,99732.97
2022-08-22T19:13:48.621Z,99732.66
2022-08-22T19:16:54.892Z,99724.31
2022-08-22T19:19:52.899Z,99727.78
2022-08-22T19:22:29.916Z,99731.91
2022-08-22T19:25:26.024Z,99737.25
2022-08-22T19:28:26.637Z,99743.41
2022-08-22T19:31:23.611Z,99737.78
2022-08-22T19:34:14.471Z,99748.72
2022-08-22T19:36:45.549Z,99753.19
2022-08-22T19:39:51.053Z,99751.34
2022-08-22T19:42:49.920Z,99758.38
2022-08-22T19:45:28.954Z,99759.19
2022-08-22T19:48:02.100Z,99759.50
2022-08-22T19:50:37.407Z,99768.25
2022-08-22T19:53:26.232Z,99761.06
2022-08-22T19:56:19.173Z,99761.34
2022-08-22T19:59:12.760Z,99765.94
2022-08-22T20:01:56.193Z,99768.50
2022-08-22T20:04:52.877Z,99773.03
2022-08-22T20:07:33.974Z,99773.50
2022-08-22T20:10:21.192Z,99771.41
2022-08-22T20:13:07.662Z,99775.34
2022-08-22T20:16:17.445Z,99774.31
2022-08-22T20:19:19.548Z,99768.75
2022-08-22T20:21:58.069Z,99768.75
2022-08-22T20:24:40.526Z,99775.31
2022-08-22T20:27:15.512Z,99771.38
2022-08-22T20:29:52.525Z,99768.88
2022-08-22T20:32:26.107Z,99772.25
2022-08-22T20:35:01.389Z,99780.44
2022-08-22T20:38:03.302Z,99774.72
2022-08-22T20:40:55.324Z,99771.19
2022-08-22T20:43:35.159Z,99768.75
2022-08-22T20:46:24.130Z,99767.25
2022-08-22T20:48:57.304Z,99768.00
2022-08-22T20:51:31.582Z,99768.28
2022-08-22T20:54:02.704Z,99771.63
2022-08-22T20:56:53.329Z,99766.69
2022-08-22T20:59:37.904Z,99775.94
2022-08-22T21:02:14.549Z,99767.84
2022-08-22T21:04:53.217Z,99765.78
2022-08-22T21:07:25.728Z,99766.81
2022-08-22T21:10:22.994Z,99770.25
2022-08-22T21:13:11.980Z,99758.00
2022-08-22T21:15:44.149Z,99762.84
2022-08-22T21:18:15.334Z,99768.16
2022-08-22T21:20:45.601Z,99767.00
2022-08-22T21:23:16.995Z,99765.31
2022-08-22T21:25:58.379Z,99768.91
2022-08-22T21:28:35.177Z,99770.47
2022-08-22T21:31:13.555Z,99768.50
2022-08-22T21:33:45.585Z,99778.19
2022-08-22T21:36:18.941Z,99776.78
2022-08-22T21:38:52.241Z,99769.78
2022-08-22T21:41:31.978Z,99780.03
2022-08-22T21:44:20.102Z,99778.00
2022-08-22T21:46:48.793Z,99776.72
2022-08-22T21:49:23.500Z,99768.66
2022-08-22T21:51:54.072Z,99779.38
2022-08-22T21:54:40.671Z,99775.09
2022-08-22T21:57:38.640Z,99780.59
2022-08-22T22:00:14.293Z,99767.38
2022-08-22T22:02:44.012Z,99762.44
2022-08-22T22:05:15.876Z,99763.34
2022-08-22T22:07:48.500Z,99766.41
2022-08-22T22:10:20.512Z,99770.38
2022-08-22T22:12:51.859Z,99773.78
2022-08-22T22:15:25.244Z,99773.22
2022-08-22T22:17:55.046Z,99777.56
2022-08-22T22:20:27.603Z,99773.00
2022-08-22T22:22:57.611Z,99778.47
2022-08-22T22:25:39.801Z,99773.97
2022-08-22T22:28:14.584Z,99772.19
2022-08-22T22:30:44.989Z,99778.09
2022-08-22T22:33:13.466Z,99781.31
2022-08-22T22:35:42.445Z,99771.28
2022-08-22T22:38:13.100Z,99772.00
2022-08-22T22:40:42.963Z,99774.72
2022-08-22T22:43:12.635Z,99771.81
2022-08-22T22:45:41.306Z,99785.28
2022-08-22T22:48:09.986Z,99774.41
2022-08-22T22:50:40.931Z,99777.44
2022-08-22T22:53:09.770Z,99772.59
2022-08-22T22:55:41.495Z,99773.19
2022-08-22T22:58:10.355Z,99772.72
2022-08-22T23:00:39.167Z,99773.06
2022-08-22T23:03:07.745Z,99767.38
2022-08-22T23:05:37.157Z,99770.00
2022-08-22T23:08:05.793Z,99764.72
2022-08-22T23:10:34.542Z,99768.31
2022-08-22T23:13:06.924Z,99765.88
2022-08-22T23:15:35.627Z,99764.91
2022-08-22T23:18:04.454Z,99760.47
2022-08-22T23:20:33.156Z,99768.91
2022-08-22T23:23:01.526Z,99766.88
2022-08-22T23:25:30.139Z,99765.16
2022-08-22T23:27:58.434Z,99766.44
2022-08-22T23:30:28.184Z,99773.47
2022-08-22T23:32:57.017Z,99767.97
2022-08-22T23:35:25.615Z,99763.50
2022-08-22T23:37:53.932Z,99763.72
2022-08-22T23:40:22.507Z,99759.88
2022-08-22T23:42:51.069Z,99760.69
2022-08-22T23:45:21.494Z,99759.63
2022-08-22T23:47:51.529Z,99756.59
2022-08-22T23:50:20.636Z,99767.84
2022-08-22T23:52:49.218Z,99763.69
2022-08-22T23:55:18.193Z,99764.56
2022-08-22T23:57:46.739Z,99770.91
